sensor_id;sensor_type;location;lat;lon;timestamp;temperature;humidity
7998;DHT22;4044;49.814;7.828;2022-08-05T00:00:33;21.90;99.90
7998;DHT22;4044;49.814;7.828;2022-08-05T00:02:58;21.80;99.90
7998;DHT22;4044;49.814;7.828;2022-08-05T00:05:24;21.60;99.90
7998;DHT22;4044;49.814;7.828;2022-08-05T00:07:49;21.40;99.90
7998;DHT22;4044;49.814;7.828;2022-08-05T00:10:15;21.50;99.90
7998;DHT22;4044;49.814;7.828;2022-08-05T00:12:40;21.40;99.90
7998;DHT22;4044;49.814;7.828;2022-08-05T00:15:07;21.40;99.90
7998;DHT22;4044;49.814;7.828;2022-08-05T00:17:33;21.50;99.90
7998;DHT22;4044;49.814;7.828;2022-08-05T00:19:59;21.50;99.90
7998;DHT22;4044;49.814;7.828;2022-08-05T00:22:24;21.50;99.90
7998;DHT22;4044;49.814;7.828;2022-08-05T00:24:50;21.50;99.90
7998;DHT22;4044;49.814;7.828;2022-08-05T00:27:15;21.60;99.90
7998;DHT22;4044;49.814;7.828;2022-08-05T00:29:41;21.70;99.90
7998;DHT22;4044;49.814;7.828;2022-08-05T00:32:07;21.80;99.90
7998;DHT22;4044;49.814;7.828;2022-08-05T00:34:35;21.60;99.90
7998;DHT22;4044;49.814;7.828;2022-08-05T00:37:01;21.60;99.90
7998;DHT22;4044;49.814;7.828;2022-08-05T00:39:26;21.70;99.90
7998;DHT22;4044;49.814;7.828;2022-08-05T00:41:52;21.50;99.90
7998;DHT22;4044;49.814;7.828;2022-08-05T00:44:17;21.40;99.90
7998;DHT22;4044;49.814;7.828;2022-08-05T00:46:43;21.50;99.90
7998;DHT22;4044;49.814;7.828;2022-08-05T00:49:08;21.70;99.90
7998;DHT22;4044;49.814;7.828;2022-08-05T00:51:34;22.00;99.90
7998;DHT22;4044;49.814;7.828;2022-08-05T00:54:01;21.90;99.90
7998;DHT22;4044;49.814;7.828;2022-08-05T00:56:26;21.90;99.90
7998;DHT22;4044;49.814;7.828;2022-08-05T00:58:52;21.90;99.90
7998;DHT22;4044;49.814;7.828;2022-08-05T01:01:17;22.00;99.90
7998;DHT22;4044;49.814;7.828;2022-08-05T01:03:43;22.10;99.90
7998;DHT22;4044;49.814;7.828;2022-08-05T01:06:09;22.10;99.90
7998;DHT22;4044;49.814;7.828;2022-08-05T01:08:35;22.10;99.90
7998;DHT22;4044;49.814;7.828;2022-08-05T01:11:26;22.20;99.90
7998;DHT22;4044;49.814;7.828;2022-08-05T01:14:15;22.20;99.90
7998;DHT22;4044;49.814;7.828;2022-08-05T01:16:50;22.20;99.90
7998;DHT22;4044;49.814;7.828;2022-08-05T01:27:53;22.00;99.90
7998;DHT22;4044;49.814;7.828;2022-08-05T01:30:26;21.90;99.90
7998;DHT22;4044;49.814;7.828;2022-08-05T01:32:52;21.90;99.90
7998;DHT22;4044;49.814;7.828;2022-08-05T01:35:26;22.00;99.90
7998;DHT22;4044;49.814;7.828;2022-08-05T01:37:54;22.00;99.90
7998;DHT22;4044;49.814;7.828;2022-08-05T01:40:22;22.00;99.90
7998;DHT22;4044;49.814;7.828;2022-08-05T01:42:51;22.00;99.90
7998;DHT22;4044;49.814;7.828;2022-08-05T01:45:18;22.00;99.90
7998;DHT22;4044;49.814;7.828;2022-08-05T01:47:45;22.10;99.90
7998;DHT22;4044;49.814;7.828;2022-08-05T01:50:17;22.10;99.90
7998;DHT22;4044;49.814;7.828;2022-08-05T01:52:46;22.10;99.90
7998;DHT22;4044;49.814;7.828;2022-08-05T01:55:15;22.20;99.90
7998;DHT22;4044;49.814;7.828;2022-08-05T01:57:44;22.10;99.90
7998;DHT22;4044;49.814;7.828;2022-08-05T02:00:11;22.10;99.90
7998;DHT22;4044;49.814;7.828;2022-08-05T02:02:40;22.00;99.90
7998;DHT22;4044;49.814;7.828;2022-08-05T02:05:09;22.00;99.90
7998;DHT22;4044;49.814;7.828;2022-08-05T02:07:36;22.10;99.90
7998;DHT22;4044;49.814;7.828;2022-08-05T02:10:03;22.00;99.90
7998;DHT22;4044;49.814;7.828;2022-08-05T02:12:52;21.90;99.90
7998;DHT22;4044;49.814;7.828;2022-08-05T02:15:27;21.90;99.90
7998;DHT22;4044;49.814;7.828;2022-08-05T02:18:06;21.90;99.90
7998;DHT22;4044;49.814;7.828;2022-08-05T02:20:46;21.90;99.90
7998;DHT22;4044;49.814;7.828;2022-08-05T02:23:15;21.90;99.90
7998;DHT22;4044;49.814;7.828;2022-08-05T02:25:43;21.90;99.90
7998;DHT22;4044;49.814;7.828;2022-08-05T02:28:09;21.80;99.90
7998;DHT22;4044;49.814;7.828;2022-08-05T02:30:51;21.80;99.90
7998;DHT22;4044;49.814;7.828;2022-08-05T02:33:19;21.80;99.90
7998;DHT22;4044;49.814;7.828;2022-08-05T02:35:45;21.80;99.90
7998;DHT22;4044;49.814;7.828;2022-08-05T02:38:12;21.70;99.90
7998;DHT22;4044;49.814;7.828;2022-08-05T02:40:41;21.70;99.90
7998;DHT22;4044;49.814;7.828;2022-08-05T02:43:10;21.70;99.90
7998;DHT22;4044;49.814;7.828;2022-08-05T02:45:37;21.60;99.90
7998;DHT22;4044;49.814;7.828;2022-08-05T02:48:04;21.70;99.90
7998;DHT22;4044;49.814;7.828;2022-08-05T02:50:30;21.50;99.90
7998;DHT22;4044;49.814;7.828;2022-08-05T02:52:56;21.50;99.90
7998;DHT22;4044;49.814;7.828;2022-08-05T02:55:22;21.60;99.90
7998;DHT22;4044;49.814;7.828;2022-08-05T02:57:49;21.70;99.90
7998;DHT22;4044;49.814;7.828;2022-08-05T03:00:15;21.60;99.90
7998;DHT22;4044;49.814;7.828;2022-08-05T03:02:43;21.60;99.90
7998;DHT22;4044;49.814;7.828;2022-08-05T03:05:11;21.50;99.90
7998;DHT22;4044;49.814;7.828;2022-08-05T03:07:38;21.20;99.90
7998;DHT22;4044;49.814;7.828;2022-08-05T03:10:05;21.10;99.90
7998;DHT22;4044;49.814;7.828;2022-08-05T03:12:33;21.00;99.90
7998;DHT22;4044;49.814;7.828;2022-08-05T03:14:59;20.80;99.90
7998;DHT22;4044;49.814;7.828;2022-08-05T03:17:25;20.70;99.90
7998;DHT22;4044;49.814;7.828;2022-08-05T03:19:50;20.60;99.90
7998;DHT22;4044;49.814;7.828;2022-08-05T03:22:16;20.50;99.90
7998;DHT22;4044;49.814;7.828;2022-08-05T03:24:43;20.30;99.90
7998;DHT22;4044;49.814;7.828;2022-08-05T03:27:09;20.30;99.90
7998;DHT22;4044;49.814;7.828;2022-08-05T03:29:35;20.40;99.90
7998;DHT22;4044;49.814;7.828;2022-08-05T03:32:02;20.30;99.90
7998;DHT22;4044;49.814;7.828;2022-08-05T03:34:28;20.30;99.90
7998;DHT22;4044;49.814;7.828;2022-08-05T03:36:53;20.30;99.90
7998;DHT22;4044;49.814;7.828;2022-08-05T03:39:19;20.40;99.90
7998;DHT22;4044;49.814;7.828;2022-08-05T03:41:44;20.40;99.90
7998;DHT22;4044;49.814;7.828;2022-08-05T03:44:10;20.40;99.90
7998;DHT22;4044;49.814;7.828;2022-08-05T03:46:35;20.40;99.90
7998;DHT22;4044;49.814;7.828;2022-08-05T03:49:01;20.70;99.90
7998;DHT22;4044;49.814;7.828;2022-08-05T03:51:44;20.50;99.90
7998;DHT22;4044;49.814;7.828;2022-08-05T03:54:51;20.60;99.90
7998;DHT22;4044;49.814;7.828;2022-08-05T03:57:22;20.50;99.90
7998;DHT22;4044;49.814;7.828;2022-08-05T03:59:59;20.50;99.90
7998;DHT22;4044;49.814;7.828;2022-08-05T04:02:28;20.60;99.90
7998;DHT22;4044;49.814;7.828;2022-08-05T04:04:56;20.60;99.90
7998;DHT22;4044;49.814;7.828;2022-08-05T04:07:23;20.70;99.90
7998;DHT22;4044;49.814;7.828;2022-08-05T04:09:49;20.70;99.90
7998;DHT22;4044;49.814;7.828;2022-08-05T04:12:14;20.60;99.90
7998;DHT22;4044;49.814;7.828;2022-08-05T04:14:41;20.80;99.90
7998;DHT22;4044;49.814;7.828;2022-08-05T04:17:08;20.80;99.90
7998;DHT22;4044;49.814;7.828;2022-08-05T04:19:41;20.80;99.90
7998;DHT22;4044;49.814;7.828;2022-08-05T04:22:07;20.90;99.90
7998;DHT22;4044;49.814;7.828;2022-08-05T04:24:32;21.00;99.90
7998;DHT22;4044;49.814;7.828;2022-08-05T04:26:58;20.80;99.90
7998;DHT22;4044;49.814;7.828;2022-08-05T04:29:23;20.80;99.90
7998;DHT22;4044;49.814;7.828;2022-08-05T04:31:49;20.80;99.90
7998;DHT22;4044;49.814;7.828;2022-08-05T04:34:14;21.00;99.90
7998;DHT22;4044;49.814;7.828;2022-08-05T04:36:40;21.00;99.90
7998;DHT22;4044;49.814;7.828;2022-08-05T04:39:05;21.10;99.90
7998;DHT22;4044;49.814;7.828;2022-08-05T04:41:31;21.20;99.90
7998;DHT22;4044;49.814;7.828;2022-08-05T04:43:56;21.30;99.90
7998;DHT22;4044;49.814;7.828;2022-08-05T04:46:22;21.30;99.90
7998;DHT22;4044;49.814;7.828;2022-08-05T04:48:48;21.30;99.90
7998;DHT22;4044;49.814;7.828;2022-08-05T04:51:13;21.40;99.90
7998;DHT22;4044;49.814;7.828;2022-08-05T04:53:39;21.40;99.90
7998;DHT22;4044;49.814;7.828;2022-08-05T04:56:08;21.50;99.90
7998;DHT22;4044;49.814;7.828;2022-08-05T04:58:34;21.60;99.90
7998;DHT22;4044;49.814;7.828;2022-08-05T05:00:59;21.60;99.90
7998;DHT22;4044;49.814;7.828;2022-08-05T05:03:25;21.60;99.90
7998;DHT22;4044;49.814;7.828;2022-08-05T05:05:50;21.70;99.90
7998;DHT22;4044;49.814;7.828;2022-08-05T05:08:16;21.70;99.90
7998;DHT22;4044;49.814;7.828;2022-08-05T05:10:44;21.70;99.90
7998;DHT22;4044;49.814;7.828;2022-08-05T05:13:15;21.70;99.90
7998;DHT22;4044;49.814;7.828;2022-08-05T05:15:43;21.90;99.90
7998;DHT22;4044;49.814;7.828;2022-08-05T05:18:14;21.90;99.90
7998;DHT22;4044;49.814;7.828;2022-08-05T05:20:42;22.00;99.90
7998;DHT22;4044;49.814;7.828;2022-08-05T05:23:08;22.10;99.90
7998;DHT22;4044;49.814;7.828;2022-08-05T05:25:34;22.10;99.90
7998;DHT22;4044;49.814;7.828;2022-08-05T05:27:59;22.00;99.90
7998;DHT22;4044;49.814;7.828;2022-08-05T05:30:25;21.90;99.90
7998;DHT22;4044;49.814;7.828;2022-08-05T05:32:50;21.90;99.90
7998;DHT22;4044;49.814;7.828;2022-08-05T05:35:16;21.90;99.90
7998;DHT22;4044;49.814;7.828;2022-08-05T05:37:53;22.00;99.90
7998;DHT22;4044;49.814;7.828;2022-08-05T05:40:20;22.10;99.90
7998;DHT22;4044;49.814;7.828;2022-08-05T05:42:46;22.30;99.90
7998;DHT22;4044;49.814;7.828;2022-08-05T05:45:12;22.40;99.90
7998;DHT22;4044;49.814;7.828;2022-08-05T05:47:38;22.50;99.90
7998;DHT22;4044;49.814;7.828;2022-08-05T05:50:04;22.60;99.90
7998;DHT22;4044;49.814;7.828;2022-08-05T05:52:29;22.60;99.90
7998;DHT22;4044;49.814;7.828;2022-08-05T05:54:58;22.60;99.90
7998;DHT22;4044;49.814;7.828;2022-08-05T05:57:25;22.60;99.90
7998;DHT22;4044;49.814;7.828;2022-08-05T05:59:50;22.60;99.90
7998;DHT22;4044;49.814;7.828;2022-08-05T06:02:16;22.50;99.90
7998;DHT22;4044;49.814;7.828;2022-08-05T06:04:41;22.40;99.90
7998;DHT22;4044;49.814;7.828;2022-08-05T06:07:07;22.40;99.90
7998;DHT22;4044;49.814;7.828;2022-08-05T06:09:32;22.30;99.90
7998;DHT22;4044;49.814;7.828;2022-08-05T06:11:58;22.40;99.90
7998;DHT22;4044;49.814;7.828;2022-08-05T06:14:23;22.40;99.90
7998;DHT22;4044;49.814;7.828;2022-08-05T06:16:49;22.40;99.90
7998;DHT22;4044;49.814;7.828;2022-08-05T06:19:14;22.60;99.90
7998;DHT22;4044;49.814;7.828;2022-08-05T06:21:40;22.70;99.90
7998;DHT22;4044;49.814;7.828;2022-08-05T06:24:06;22.90;99.90
7998;DHT22;4044;49.814;7.828;2022-08-05T06:26:32;23.00;99.90
7998;DHT22;4044;49.814;7.828;2022-08-05T06:28:57;23.10;99.90
7998;DHT22;4044;49.814;7.828;2022-08-05T06:31:23;23.20;99.90
7998;DHT22;4044;49.814;7.828;2022-08-05T06:33:49;23.30;99.90
7998;DHT22;4044;49.814;7.828;2022-08-05T06:36:15;23.30;99.90
7998;DHT22;4044;49.814;7.828;2022-08-05T06:38:40;23.30;99.90
7998;DHT22;4044;49.814;7.828;2022-08-05T06:41:06;23.30;99.90
7998;DHT22;4044;49.814;7.828;2022-08-05T06:43:31;23.50;99.90
7998;DHT22;4044;49.814;7.828;2022-08-05T06:45:57;23.60;99.90
7998;DHT22;4044;49.814;7.828;2022-08-05T06:48:22;23.80;99.90
7998;DHT22;4044;49.814;7.828;2022-08-05T06:50:48;23.60;99.90
7998;DHT22;4044;49.814;7.828;2022-08-05T06:53:13;23.60;99.90
7998;DHT22;4044;49.814;7.828;2022-08-05T06:55:40;23.40;99.90
7998;DHT22;4044;49.814;7.828;2022-08-05T06:58:06;23.30;99.90
7998;DHT22;4044;49.814;7.828;2022-08-05T07:00:32;23.30;99.90
7998;DHT22;4044;49.814;7.828;2022-08-05T07:02:58;23.30;99.90
7998;DHT22;4044;49.814;7.828;2022-08-05T07:05:24;23.40;99.90
7998;DHT22;4044;49.814;7.828;2022-08-05T07:07:50;23.50;99.90
7998;DHT22;4044;49.814;7.828;2022-08-05T07:10:15;23.60;99.90
7998;DHT22;4044;49.814;7.828;2022-08-05T07:12:41;23.80;99.90
7998;DHT22;4044;49.814;7.828;2022-08-05T07:15:25;24.10;99.90
7998;DHT22;4044;49.814;7.828;2022-08-05T07:18:09;24.20;99.90
7998;DHT22;4044;49.814;7.828;2022-08-05T07:20:35;24.30;99.90
7998;DHT22;4044;49.814;7.828;2022-08-05T07:23:00;24.20;99.90
7998;DHT22;4044;49.814;7.828;2022-08-05T07:25:26;24.20;99.90
7998;DHT22;4044;49.814;7.828;2022-08-05T07:27:53;24.30;99.90
7998;DHT22;4044;49.814;7.828;2022-08-05T07:30:19;24.30;99.90
7998;DHT22;4044;49.814;7.828;2022-08-05T07:32:44;24.30;99.90
7998;DHT22;4044;49.814;7.828;2022-08-05T07:35:11;24.20;99.90
7998;DHT22;4044;49.814;7.828;2022-08-05T07:37:38;24.10;99.90
7998;DHT22;4044;49.814;7.828;2022-08-05T07:40:04;24.20;99.90
7998;DHT22;4044;49.814;7.828;2022-08-05T07:42:30;24.30;99.90
7998;DHT22;4044;49.814;7.828;2022-08-05T07:44:56;24.50;99.90
7998;DHT22;4044;49.814;7.828;2022-08-05T07:47:21;24.40;99.90
7998;DHT22;4044;49.814;7.828;2022-08-05T07:49:47;24.40;99.90
7998;DHT22;4044;49.814;7.828;2022-08-05T07:52:12;24.60;99.90
7998;DHT22;4044;49.814;7.828;2022-08-05T07:54:38;24.70;99.90
7998;DHT22;4044;49.814;7.828;2022-08-05T07:57:04;24.80;99.90
7998;DHT22;4044;49.814;7.828;2022-08-05T07:59:29;24.80;99.90
7998;DHT22;4044;49.814;7.828;2022-08-05T08:01:55;24.70;99.90
7998;DHT22;4044;49.814;7.828;2022-08-05T08:04:21;24.60;99.90
7998;DHT22;4044;49.814;7.828;2022-08-05T08:06:46;24.70;99.90
7998;DHT22;4044;49.814;7.828;2022-08-05T08:09:12;24.80;99.90
7998;DHT22;4044;49.814;7.828;2022-08-05T08:11:37;24.80;99.90
7998;DHT22;4044;49.814;7.828;2022-08-05T08:14:03;24.90;99.90
7998;DHT22;4044;49.814;7.828;2022-08-05T08:16:28;24.90;99.90
7998;DHT22;4044;49.814;7.828;2022-08-05T08:18:54;24.90;99.90
7998;DHT22;4044;49.814;7.828;2022-08-05T08:21:19;24.90;99.90
7998;DHT22;4044;49.814;7.828;2022-08-05T08:23:45;24.80;99.90
7998;DHT22;4044;49.814;7.828;2022-08-05T08:26:11;24.70;99.90
7998;DHT22;4044;49.814;7.828;2022-08-05T08:28:37;24.50;99.90
7998;DHT22;4044;49.814;7.828;2022-08-05T08:31:02;24.50;99.90
7998;DHT22;4044;49.814;7.828;2022-08-05T08:33:28;24.30;99.90
7998;DHT22;4044;49.814;7.828;2022-08-05T08:35:53;24.00;99.90
7998;DHT22;4044;49.814;7.828;2022-08-05T08:38:19;23.70;99.90
7998;DHT22;4044;49.814;7.828;2022-08-05T08:40:44;23.60;99.90
7998;DHT22;4044;49.814;7.828;2022-08-05T08:43:13;23.60;99.90
7998;DHT22;4044;49.814;7.828;2022-08-05T08:45:41;24.00;99.90
7998;DHT22;4044;49.814;7.828;2022-08-05T08:48:07;24.40;99.90
7998;DHT22;4044;49.814;7.828;2022-08-05T08:50:40;24.50;99.90
7998;DHT22;4044;49.814;7.828;2022-08-05T08:53:06;24.60;99.90
7998;DHT22;4044;49.814;7.828;2022-08-05T08:55:35;24.70;99.90
7998;DHT22;4044;49.814;7.828;2022-08-05T08:58:01;24.60;99.90
7998;DHT22;4044;49.814;7.828;2022-08-05T09:00:28;24.60;99.90
7998;DHT22;4044;49.814;7.828;2022-08-05T09:02:55;24.40;99.90
7998;DHT22;4044;49.814;7.828;2022-08-05T09:05:21;24.50;99.90
7998;DHT22;4044;49.814;7.828;2022-08-05T09:07:46;24.50;99.90
7998;DHT22;4044;49.814;7.828;2022-08-05T09:10:12;24.30;99.90
7998;DHT22;4044;49.814;7.828;2022-08-05T09:12:38;23.60;99.90
7998;DHT22;4044;49.814;7.828;2022-08-05T09:15:05;23.20;99.90
7998;DHT22;4044;49.814;7.828;2022-08-05T09:17:31;23.30;99.90
7998;DHT22;4044;49.814;7.828;2022-08-05T09:19:58;23.40;99.90
7998;DHT22;4044;49.814;7.828;2022-08-05T09:22:24;23.60;99.90
7998;DHT22;4044;49.814;7.828;2022-08-05T09:25:00;23.50;99.90
7998;DHT22;4044;49.814;7.828;2022-08-05T09:27:34;23.50;99.90
7998;DHT22;4044;49.814;7.828;2022-08-05T09:29:59;23.90;99.90
7998;DHT22;4044;49.814;7.828;2022-08-05T09:32:36;24.10;99.90
7998;DHT22;4044;49.814;7.828;2022-08-05T09:35:13;24.60;99.90
7998;DHT22;4044;49.814;7.828;2022-08-05T09:37:52;24.90;99.90
7998;DHT22;4044;49.814;7.828;2022-08-05T09:40:32;25.10;99.90
7998;DHT22;4044;49.814;7.828;2022-08-05T09:42:59;25.30;99.90
7998;DHT22;4044;49.814;7.828;2022-08-05T09:45:41;25.50;99.90
7998;DHT22;4044;49.814;7.828;2022-08-05T09:48:20;25.50;99.90
7998;DHT22;4044;49.814;7.828;2022-08-05T09:50:50;25.60;99.90
7998;DHT22;4044;49.814;7.828;2022-08-05T09:53:17;25.70;99.90
7998;DHT22;4044;49.814;7.828;2022-08-05T09:55:43;25.60;99.90
7998;DHT22;4044;49.814;7.828;2022-08-05T09:58:14;25.60;99.90
7998;DHT22;4044;49.814;7.828;2022-08-05T10:01:02;25.80;99.90
7998;DHT22;4044;49.814;7.828;2022-08-05T10:03:28;26.10;99.90
7998;DHT22;4044;49.814;7.828;2022-08-05T10:06:08;26.20;99.90
7998;DHT22;4044;49.814;7.828;2022-08-05T10:08:37;26.50;99.90
7998;DHT22;4044;49.814;7.828;2022-08-05T10:11:23;26.60;99.90
7998;DHT22;4044;49.814;7.828;2022-08-05T10:13:48;26.70;99.90
7998;DHT22;4044;49.814;7.828;2022-08-05T10:16:29;26.80;99.90
7998;DHT22;4044;49.814;7.828;2022-08-05T10:18:55;26.90;99.90
7998;DHT22;4044;49.814;7.828;2022-08-05T10:21:21;26.80;99.90
7998;DHT22;4044;49.814;7.828;2022-08-05T10:23:46;26.80;99.90
7998;DHT22;4044;49.814;7.828;2022-08-05T10:26:12;26.70;99.90
7998;DHT22;4044;49.814;7.828;2022-08-05T10:28:39;26.80;99.90
7998;DHT22;4044;49.814;7.828;2022-08-05T10:31:06;26.60;99.90
7998;DHT22;4044;49.814;7.828;2022-08-05T10:33:33;26.00;99.90
7998;DHT22;4044;49.814;7.828;2022-08-05T10:36:00;25.30;99.90
7998;DHT22;4044;49.814;7.828;2022-08-05T10:38:30;24.40;99.90
7998;DHT22;4044;49.814;7.828;2022-08-05T10:46:19;24.90;99.90
7998;DHT22;4044;49.814;7.828;2022-08-05T10:48:47;25.10;99.90
7998;DHT22;4044;49.814;7.828;2022-08-05T10:51:18;25.60;99.90
7998;DHT22;4044;49.814;7.828;2022-08-05T10:56:48;26.10;99.90
7998;DHT22;4044;49.814;7.828;2022-08-05T10:59:18;26.40;99.90
7998;DHT22;4044;49.814;7.828;2022-08-05T11:01:49;26.80;99.90
7998;DHT22;4044;49.814;7.828;2022-08-05T11:04:29;26.90;99.90
7998;DHT22;4044;49.814;7.828;2022-08-05T11:09:52;27.30;99.90
7998;DHT22;4044;49.814;7.828;2022-08-05T11:15:10;27.60;99.90
7998;DHT22;4044;49.814;7.828;2022-08-05T11:17:40;27.80;99.90
7998;DHT22;4044;49.814;7.828;2022-08-05T11:20:07;27.90;99.90
7998;DHT22;4044;49.814;7.828;2022-08-05T11:22:52;28.30;99.90
7998;DHT22;4044;49.814;7.828;2022-08-05T11:25:38;28.20;98.60
7998;DHT22;4044;49.814;7.828;2022-08-05T11:33:33;28.80;96.90
7998;DHT22;4044;49.814;7.828;2022-08-05T11:36:09;28.80;96.70
7998;DHT22;4044;49.814;7.828;2022-08-05T11:41:10;28.90;97.10
7998;DHT22;4044;49.814;7.828;2022-08-05T11:43:38;29.00;96.50
7998;DHT22;4044;49.814;7.828;2022-08-05T11:46:07;29.20;96.70
7998;DHT22;4044;49.814;7.828;2022-08-05T11:48:33;29.60;96.60
7998;DHT22;4044;49.814;7.828;2022-08-05T11:50:58;30.00;96.10
7998;DHT22;4044;49.814;7.828;2022-08-05T11:53:25;30.40;95.10
7998;DHT22;4044;49.814;7.828;2022-08-05T11:56:01;30.90;94.60
7998;DHT22;4044;49.814;7.828;2022-08-05T11:58:38;30.90;92.80
7998;DHT22;4044;49.814;7.828;2022-08-05T12:06:10;29.90;93.50
7998;DHT22;4044;49.814;7.828;2022-08-05T12:08:50;30.00;92.90
7998;DHT22;4044;49.814;7.828;2022-08-05T12:11:21;29.90;92.20
7998;DHT22;4044;49.814;7.828;2022-08-05T12:14:03;29.50;91.50
7998;DHT22;4044;49.814;7.828;2022-08-05T12:16:37;29.20;92.70
7998;DHT22;4044;49.814;7.828;2022-08-05T12:19:04;29.10;92.60
7998;DHT22;4044;49.814;7.828;2022-08-05T12:21:35;29.40;92.40
7998;DHT22;4044;49.814;7.828;2022-08-05T12:24:08;29.40;92.20
7998;DHT22;4044;49.814;7.828;2022-08-05T12:26:38;29.30;92.50
7998;DHT22;4044;49.814;7.828;2022-08-05T12:29:06;29.30;91.90
7998;DHT22;4044;49.814;7.828;2022-08-05T12:31:32;29.00;91.90
7998;DHT22;4044;49.814;7.828;2022-08-05T12:34:00;28.90;92.50
7998;DHT22;4044;49.814;7.828;2022-08-05T12:36:26;28.90;92.60
7998;DHT22;4044;49.814;7.828;2022-08-05T12:38:52;29.10;92.00
7998;DHT22;4044;49.814;7.828;2022-08-05T12:41:18;28.90;92.00
7998;DHT22;4044;49.814;7.828;2022-08-05T12:43:52;28.40;92.50
7998;DHT22;4044;49.814;7.828;2022-08-05T12:46:29;28.20;92.80
7998;DHT22;4044;49.814;7.828;2022-08-05T12:49:10;27.90;93.10
7998;DHT22;4044;49.814;7.828;2022-08-05T12:51:47;27.60;93.50
7998;DHT22;4044;49.814;7.828;2022-08-05T12:54:30;27.20;93.80
7998;DHT22;4044;49.814;7.828;2022-08-05T12:57:01;27.10;94.10
7998;DHT22;4044;49.814;7.828;2022-08-05T13:02:12;24.60;99.90
7998;DHT22;4044;49.814;7.828;2022-08-05T13:04:41;23.80;99.90
7998;DHT22;4044;49.814;7.828;2022-08-05T13:07:09;23.50;99.90
7998;DHT22;4044;49.814;7.828;2022-08-05T13:09:41;23.20;99.90
7998;DHT22;4044;49.814;7.828;2022-08-05T13:12:12;22.90;99.90
7998;DHT22;4044;49.814;7.828;2022-08-05T13:14:43;22.80;99.90
7998;DHT22;4044;49.814;7.828;2022-08-05T13:17:16;22.70;99.90
7998;DHT22;4044;49.814;7.828;2022-08-05T13:22:22;23.20;99.90
7998;DHT22;4044;49.814;7.828;2022-08-05T13:24:47;23.40;99.90
7998;DHT22;4044;49.814;7.828;2022-08-05T13:27:27;23.60;99.90
7998;DHT22;4044;49.814;7.828;2022-08-05T13:29:52;24.00;99.90
7998;DHT22;4044;49.814;7.828;2022-08-05T13:32:18;24.40;99.90
7998;DHT22;4044;49.814;7.828;2022-08-05T13:34:45;25.00;99.90
7998;DHT22;4044;49.814;7.828;2022-08-05T13:37:11;25.30;99.90
7998;DHT22;4044;49.814;7.828;2022-08-05T13:39:37;25.10;99.90
7998;DHT22;4044;49.814;7.828;2022-08-05T13:42:02;24.70;99.90
7998;DHT22;4044;49.814;7.828;2022-08-05T13:44:28;24.50;99.90
7998;DHT22;4044;49.814;7.828;2022-08-05T13:46:53;23.90;99.90
7998;DHT22;4044;49.814;7.828;2022-08-05T13:49:19;23.80;99.90
7998;DHT22;4044;49.814;7.828;2022-08-05T13:51:44;24.00;99.90
7998;DHT22;4044;49.814;7.828;2022-08-05T13:54:10;24.20;99.90
7998;DHT22;4044;49.814;7.828;2022-08-05T13:56:36;24.10;99.90
7998;DHT22;4044;49.814;7.828;2022-08-05T13:59:02;24.00;99.90
7998;DHT22;4044;49.814;7.828;2022-08-05T14:01:27;23.80;99.90
7998;DHT22;4044;49.814;7.828;2022-08-05T14:03:53;23.80;99.90
7998;DHT22;4044;49.814;7.828;2022-08-05T14:06:37;23.50;99.90
7998;DHT22;4044;49.814;7.828;2022-08-05T14:09:03;23.40;99.90
7998;DHT22;4044;49.814;7.828;2022-08-05T14:11:28;23.20;99.90
7998;DHT22;4044;49.814;7.828;2022-08-05T14:13:54;23.20;99.90
7998;DHT22;4044;49.814;7.828;2022-08-05T14:16:20;23.20;99.90
7998;DHT22;4044;49.814;7.828;2022-08-05T14:18:45;23.20;99.90
7998;DHT22;4044;49.814;7.828;2022-08-05T14:21:11;23.40;99.90
7998;DHT22;4044;49.814;7.828;2022-08-05T14:23:36;23.40;99.90
7998;DHT22;4044;49.814;7.828;2022-08-05T14:26:02;23.50;99.90
7998;DHT22;4044;49.814;7.828;2022-08-05T14:28:28;23.80;99.90
7998;DHT22;4044;49.814;7.828;2022-08-05T14:30:55;24.20;99.90
7998;DHT22;4044;49.814;7.828;2022-08-05T14:33:21;24.30;99.90
7998;DHT22;4044;49.814;7.828;2022-08-05T14:35:47;24.10;99.90
7998;DHT22;4044;49.814;7.828;2022-08-05T14:38:13;24.30;99.90
7998;DHT22;4044;49.814;7.828;2022-08-05T14:40:38;24.30;99.90
7998;DHT22;4044;49.814;7.828;2022-08-05T14:43:04;23.90;99.90
7998;DHT22;4044;49.814;7.828;2022-08-05T14:45:29;23.70;99.90
7998;DHT22;4044;49.814;7.828;2022-08-05T14:47:55;23.50;99.90
7998;DHT22;4044;49.814;7.828;2022-08-05T14:50:20;23.60;99.90
7998;DHT22;4044;49.814;7.828;2022-08-05T14:52:46;23.80;99.90
7998;DHT22;4044;49.814;7.828;2022-08-05T14:55:11;23.80;99.90
7998;DHT22;4044;49.814;7.828;2022-08-05T14:57:37;23.80;99.90
7998;DHT22;4044;49.814;7.828;2022-08-05T15:00:03;23.90;99.90
7998;DHT22;4044;49.814;7.828;2022-08-05T15:02:29;23.90;99.90
7998;DHT22;4044;49.814;7.828;2022-08-05T15:04:54;23.90;99.90
7998;DHT22;4044;49.814;7.828;2022-08-05T15:07:20;23.80;99.90
7998;DHT22;4044;49.814;7.828;2022-08-05T15:09:45;23.80;99.90
7998;DHT22;4044;49.814;7.828;2022-08-05T15:12:11;23.80;99.90
7998;DHT22;4044;49.814;7.828;2022-08-05T15:14:36;23.80;99.90
7998;DHT22;4044;49.814;7.828;2022-08-05T15:17:03;23.80;99.90
7998;DHT22;4044;49.814;7.828;2022-08-05T15:19:29;23.80;99.90
7998;DHT22;4044;49.814;7.828;2022-08-05T15:21:54;23.70;99.90
7998;DHT22;4044;49.814;7.828;2022-08-05T15:24:20;23.70;99.90
7998;DHT22;4044;49.814;7.828;2022-08-05T15:26:45;23.60;99.90
7998;DHT22;4044;49.814;7.828;2022-08-05T15:29:11;23.60;99.90
7998;DHT22;4044;49.814;7.828;2022-08-05T15:31:36;23.40;99.90
7998;DHT22;4044;49.814;7.828;2022-08-05T15:34:02;23.50;99.90
7998;DHT22;4044;49.814;7.828;2022-08-05T15:36:27;23.50;99.90
7998;DHT22;4044;49.814;7.828;2022-08-05T15:38:53;23.70;99.90
7998;DHT22;4044;49.814;7.828;2022-08-05T15:41:20;24.00;99.10
7998;DHT22;4044;49.814;7.828;2022-08-05T15:43:45;24.30;99.10
7998;DHT22;4044;49.814;7.828;2022-08-05T15:46:11;24.40;99.20
7998;DHT22;4044;49.814;7.828;2022-08-05T15:48:36;24.50;98.60
7998;DHT22;4044;49.814;7.828;2022-08-05T15:51:02;24.80;98.40
7998;DHT22;4044;49.814;7.828;2022-08-05T15:53:28;24.80;97.90
7998;DHT22;4044;49.814;7.828;2022-08-05T15:55:53;24.80;97.50
7998;DHT22;4044;49.814;7.828;2022-08-05T15:58:19;24.90;97.40
7998;DHT22;4044;49.814;7.828;2022-08-05T16:00:44;25.00;97.20
7998;DHT22;4044;49.814;7.828;2022-08-05T16:03:10;24.70;97.20
7998;DHT22;4044;49.814;7.828;2022-08-05T16:05:35;24.70;96.80
7998;DHT22;4044;49.814;7.828;2022-08-05T16:08:01;24.90;97.30
7998;DHT22;4044;49.814;7.828;2022-08-05T16:10:26;25.00;96.80
7998;DHT22;4044;49.814;7.828;2022-08-05T16:12:52;25.00;96.20
7998;DHT22;4044;49.814;7.828;2022-08-05T16:15:17;24.70;96.30
7998;DHT22;4044;49.814;7.828;2022-08-05T16:17:44;24.60;96.70
7998;DHT22;4044;49.814;7.828;2022-08-05T16:20:09;24.60;96.10
7998;DHT22;4044;49.814;7.828;2022-08-05T16:22:35;24.40;95.60
7998;DHT22;4044;49.814;7.828;2022-08-05T16:25:01;24.20;95.90
7998;DHT22;4044;49.814;7.828;2022-08-05T16:27:27;24.30;95.70
7998;DHT22;4044;49.814;7.828;2022-08-05T16:29:53;24.30;95.20
7998;DHT22;4044;49.814;7.828;2022-08-05T16:32:18;24.30;94.50
7998;DHT22;4044;49.814;7.828;2022-08-05T16:34:44;24.00;94.90
7998;DHT22;4044;49.814;7.828;2022-08-05T16:37:09;24.00;94.70
7998;DHT22;4044;49.814;7.828;2022-08-05T16:39:35;24.00;95.00
7998;DHT22;4044;49.814;7.828;2022-08-05T16:42:00;23.90;94.40
7998;DHT22;4044;49.814;7.828;2022-08-05T16:44:26;24.00;94.60
7998;DHT22;4044;49.814;7.828;2022-08-05T16:46:51;24.10;94.60